createdAt,value
2023-04-30T00:01:49.292Z,8.53
2023-04-30T00:04:23.583Z,9.37
2023-04-30T00:06:59.416Z,7.60
2023-04-30T00:09:31.087Z,8.30
2023-04-30T00:12:01.945Z,7.93
2023-04-30T00:14:32.952Z,8.23
2023-04-30T00:17:03.729Z,8.23
2023-04-30T00:19:34.938Z,8.60
2023-04-30T00:22:08.314Z,8.03
2023-04-30T00:24:39.154Z,8.63
2023-04-30T00:27:09.933Z,7.90
2023-04-30T00:29:41.409Z,8.30
2023-04-30T00:32:12.424Z,7.90
2023-04-30T00:34:43.977Z,9.27
2023-04-30T00:37:17.346Z,8.97
2023-04-30T00:39:48.148Z,8.73
2023-04-30T00:42:20.686Z,8.60
2023-04-30T00:44:51.651Z,8.80
2023-04-30T00:47:22.689Z,9.00
2023-04-30T00:49:53.787Z,9.23
2023-04-30T00:52:27.473Z,8.67
2023-04-30T00:54:58.808Z,8.60
2023-04-30T00:57:30.621Z,8.57
2023-04-30T01:00:01.868Z,8.67
2023-04-30T01:02:34.054Z,9.10
2023-04-30T01:05:06.941Z,9.00
2023-04-30T01:07:45.278Z,8.77
2023-04-30T01:10:17.105Z,9.03
2023-04-30T01:12:55.436Z,8.30
2023-04-30T01:15:32.030Z,9.40
2023-04-30T01:18:09.329Z,8.77
2023-04-30T01:20:46.487Z,9.43
2023-04-30T01:23:30.941Z,9.00
2023-04-30T01:26:13.733Z,8.10
2023-04-30T01:28:51.122Z,8.67
2023-04-30T01:31:22.802Z,9.27
2023-04-30T01:33:53.641Z,8.77
2023-04-30T01:36:45.231Z,9.13
2023-04-30T01:39:42.474Z,9.67
2023-04-30T01:42:20.708Z,9.37
2023-04-30T01:45:15.818Z,9.20
2023-04-30T01:47:55.543Z,9.43
2023-04-30T01:50:32.870Z,9.90
2023-04-30T01:53:05.982Z,9.50
2023-04-30T01:55:40.912Z,8.90
2023-04-30T01:58:14.921Z,10.03
2023-04-30T02:00:48.251Z,9.93
2023-04-30T02:03:19.075Z,10.00
2023-04-30T02:05:50.833Z,9.80
2023-04-30T02:08:22.097Z,9.67
2023-04-30T02:10:52.925Z,10.00
2023-04-30T02:13:23.831Z,10.00
2023-04-30T02:15:57.204Z,9.60
2023-04-30T02:18:28.169Z,9.80
2023-04-30T02:20:58.982Z,9.93
2023-04-30T02:23:29.797Z,11.07
2023-04-30T02:26:00.831Z,10.27
2023-04-30T02:28:31.772Z,10.97
2023-04-30T02:31:05.145Z,10.73
2023-04-30T02:33:36.024Z,9.80
2023-04-30T02:36:07.470Z,10.83
2023-04-30T02:38:38.379Z,11.20
2023-04-30T02:41:09.175Z,10.90
2023-04-30T02:43:39.957Z,10.20
2023-04-30T02:46:13.392Z,11.37
2023-04-30T02:48:44.440Z,11.30
2023-04-30T02:51:15.192Z,11.83
2023-04-30T02:53:45.975Z,11.97
2023-04-30T02:56:16.759Z,11.30
2023-04-30T02:58:47.589Z,12.60
2023-04-30T03:01:21.067Z,11.60
2023-04-30T03:03:51.893Z,11.60
2023-04-30T03:06:22.801Z,11.43
2023-04-30T03:08:53.724Z,11.30
2023-04-30T03:11:24.527Z,11.77
2023-04-30T03:13:55.963Z,11.80
2023-04-30T03:16:31.203Z,11.40
2023-04-30T03:19:02.084Z,11.87
2023-04-30T03:21:32.966Z,13.07
2023-04-30T03:24:03.984Z,12.07
2023-04-30T03:26:34.835Z,12.07
2023-04-30T03:29:05.652Z,11.77
2023-04-30T03:31:39.090Z,12.50
2023-04-30T03:34:09.932Z,11.60
2023-04-30T03:36:40.883Z,11.47
2023-04-30T03:39:12.183Z,11.87
2023-04-30T03:41:42.991Z,12.07
2023-04-30T03:44:16.206Z,11.50
2023-04-30T03:46:50.082Z,11.30
2023-04-30T03:49:20.866Z,12.10
2023-04-30T03:51:51.833Z,12.57
2023-04-30T03:54:24.890Z,11.60
2023-04-30T03:56:56.175Z,13.60
2023-04-30T03:59:26.978Z,11.97
2023-04-30T04:02:00.532Z,12.23
2023-04-30T04:04:32.005Z,12.80
2023-04-30T04:07:03.937Z,12.20
2023-04-30T04:09:34.770Z,13.60
2023-04-30T04:12:05.801Z,14.33
2023-04-30T04:14:36.849Z,13.50
2023-04-30T04:17:10.730Z,14.33
2023-04-30T04:19:41.527Z,14.50
2023-04-30T04:22:12.415Z,14.23
2023-04-30T04:24:43.311Z,14.70
2023-04-30T04:27:14.101Z,15.43
2023-04-30T04:29:44.878Z,14.20
2023-04-30T04:32:18.266Z,15.20
2023-04-30T04:34:49.676Z,15.50
2023-04-30T04:37:20.901Z,16.47
2023-04-30T04:39:52.093Z,15.83
2023-04-30T04:42:23.127Z,15.67
2023-04-30T04:44:53.922Z,17.37
2023-04-30T04:47:27.545Z,18.00
2023-04-30T04:49:58.746Z,17.07
2023-04-30T04:52:29.569Z,17.97
2023-04-30T04:55:00.517Z,17.10
2023-04-30T04:57:31.551Z,16.40
2023-04-30T05:00:02.346Z,17.67
2023-04-30T05:02:35.829Z,18.43
2023-04-30T05:05:07.103Z,17.40
2023-04-30T05:07:37.946Z,18.57
2023-04-30T05:10:10.527Z,17.40
2023-04-30T05:12:41.677Z,16.80
2023-04-30T05:15:13.233Z,16.40
2023-04-30T05:17:46.674Z,15.50
2023-04-30T05:20:17.622Z,15.70
2023-04-30T05:22:48.456Z,13.13
2023-04-30T05:25:19.382Z,13.17
2023-04-30T05:27:50.158Z,13.77
2023-04-30T05:30:21.060Z,12.20
2023-04-30T05:32:54.662Z,11.83
2023-04-30T05:35:25.564Z,12.00
2023-04-30T05:37:57.356Z,11.90
2023-04-30T05:40:28.155Z,11.20
2023-04-30T05:42:59.079Z,11.10
2023-04-30T05:45:29.919Z,10.03
2023-04-30T05:48:03.468Z,10.30
2023-04-30T05:50:34.313Z,9.70
2023-04-30T05:53:05.144Z,8.80
2023-04-30T05:55:36.446Z,8.87
2023-04-30T05:58:09.761Z,9.73
2023-04-30T06:00:40.677Z,10.43
2023-04-30T06:03:14.252Z,9.50
2023-04-30T06:05:45.370Z,10.20
2023-04-30T06:08:16.257Z,9.60
2023-04-30T06:10:47.142Z,9.40
2023-04-30T06:13:18.117Z,8.60
2023-04-30T06:15:48.897Z,8.80
2023-04-30T06:18:22.404Z,9.00
2023-04-30T06:20:53.186Z,8.27
2023-04-30T06:23:23.991Z,8.87
2023-04-30T06:25:54.762Z,8.60
2023-04-30T06:28:25.614Z,9.47
2023-04-30T06:30:56.984Z,8.20
2023-04-30T06:33:30.587Z,8.63
2023-04-30T06:36:01.410Z,8.40
2023-04-30T06:38:32.281Z,8.87
2023-04-30T06:41:03.336Z,9.37
2023-04-30T06:43:34.193Z,8.40
2023-04-30T06:46:05.308Z,8.20
2023-04-30T06:48:38.956Z,8.00
2023-04-30T06:51:10.834Z,8.17
2023-04-30T06:53:41.914Z,8.70
2023-04-30T06:56:13.413Z,8.97
2023-04-30T06:58:45.260Z,9.20
2023-04-30T07:01:16.196Z,8.90
2023-04-30T07:03:49.945Z,8.57
2023-04-30T07:06:20.957Z,9.27
2023-04-30T07:08:52.149Z,9.53
2023-04-30T07:11:23.605Z,9.27
2023-04-30T07:13:54.396Z,8.27
2023-04-30T07:16:25.611Z,9.07
2023-04-30T07:19:00.042Z,9.00
2023-04-30T07:21:32.847Z,9.10
2023-04-30T07:24:03.698Z,9.00
2023-04-30T07:26:34.484Z,8.70
2023-04-30T07:29:05.875Z,9.13
2023-04-30T07:31:36.717Z,8.53
2023-04-30T07:34:10.114Z,9.60
2023-04-30T07:36:41.171Z,8.60
2023-04-30T07:39:12.594Z,9.37
2023-04-30T07:41:43.365Z,9.83
2023-04-30T07:44:14.395Z,9.60
2023-04-30T07:46:45.294Z,8.70
2023-04-30T07:49:18.660Z,9.73
2023-04-30T07:51:49.645Z,10.10
2023-04-30T07:54:23.670Z,9.03
2023-04-30T07:59:26.882Z,8.60
2023-04-30T08:01:58.175Z,9.00
2023-04-30T08:04:31.641Z,9.40
2023-04-30T08:07:02.556Z,8.90
2023-04-30T08:09:33.477Z,8.70
2023-04-30T08:12:05.127Z,10.20
2023-04-30T08:14:36.109Z,8.90
2023-04-30T08:17:06.958Z,9.47
2023-04-30T08:19:40.319Z,8.97
2023-04-30T08:22:11.463Z,8.30
2023-04-30T08:24:42.432Z,8.10
2023-04-30T08:27:13.285Z,9.20
2023-04-30T08:29:44.168Z,7.83
2023-04-30T08:32:15.915Z,8.10
2023-04-30T08:34:49.410Z,7.47
2023-04-30T08:37:20.238Z,6.97
2023-04-30T08:39:51.000Z,7.00
2023-04-30T08:42:24.368Z,7.67
2023-04-30T08:44:55.148Z,7.03
2023-04-30T08:47:28.071Z,7.60
2023-04-30T08:50:01.654Z,7.30
2023-04-30T08:52:34.032Z,6.40
2023-04-30T08:55:06.714Z,6.00
2023-04-30T08:57:38.692Z,8.30
2023-04-30T09:00:11.250Z,6.87
2023-04-30T09:02:44.154Z,5.87
2023-04-30T09:05:18.533Z,6.37
2023-04-30T09:08:02.611Z,6.67
2023-04-30T09:10:36.427Z,6.60
2023-04-30T09:13:09.117Z,5.37
2023-04-30T09:15:41.746Z,7.47
2023-04-30T09:18:17.469Z,7.60
2023-04-30T09:21:03.099Z,6.50
2023-04-30T09:23:34.191Z,5.97
2023-04-30T09:26:05.585Z,5.70
2023-04-30T09:28:36.921Z,6.47
2023-04-30T09:31:24.838Z,6.83
2023-04-30T09:33:56.092Z,5.10
2023-04-30T09:36:31.729Z,6.33
2023-04-30T09:39:14.850Z,6.67
2023-04-30T09:41:47.008Z,5.57
2023-04-30T09:44:30.755Z,5.57
2023-04-30T09:47:02.007Z,5.50
2023-04-30T09:49:32.935Z,5.40
2023-04-30T09:52:07.687Z,5.33
2023-04-30T09:54:39.187Z,5.10
2023-04-30T09:57:14.392Z,4.70
2023-04-30T09:59:49.440Z,4.60
2023-04-30T10:02:20.692Z,4.50
2023-04-30T10:04:56.604Z,5.20
2023-04-30T10:07:37.199Z,5.63
2023-04-30T10:10:12.160Z,5.37
2023-04-30T10:12:47.695Z,5.57
2023-04-30T10:15:20.548Z,3.70
2023-04-30T10:17:58.801Z,5.83
2023-04-30T10:20:30.765Z,5.90
2023-04-30T10:23:04.615Z,4.70
2023-04-30T10:25:35.757Z,5.40
2023-04-30T10:28:10.055Z,4.77
2023-04-30T10:30:41.317Z,4.27
2023-04-30T10:33:20.449Z,3.50
2023-04-30T10:35:56.168Z,4.37
2023-04-30T10:38:32.864Z,4.00
2023-04-30T10:41:11.637Z,4.00
2023-04-30T10:43:42.922Z,5.57
2023-04-30T10:46:13.832Z,6.20
2023-04-30T10:48:44.856Z,5.47
2023-04-30T10:51:16.921Z,5.97
2023-04-30T10:53:53.074Z,5.80
2023-04-30T10:56:34.821Z,5.50
2023-04-30T10:59:05.700Z,5.47
2023-04-30T11:01:58.308Z,5.50
2023-04-30T11:04:30.100Z,6.43
2023-04-30T11:07:19.007Z,5.43
2023-04-30T11:09:52.584Z,4.87
2023-04-30T11:12:28.806Z,5.03
2023-04-30T11:15:08.205Z,5.53
2023-04-30T11:17:41.256Z,4.60
2023-04-30T11:20:16.209Z,4.43
2023-04-30T11:22:48.272Z,4.13
2023-04-30T11:25:25.562Z,4.87
2023-04-30T11:27:59.751Z,4.00
2023-04-30T11:30:32.462Z,4.90
2023-04-30T11:33:04.337Z,4.10
2023-04-30T11:35:35.495Z,4.20
2023-04-30T11:38:08.746Z,3.67
2023-04-30T11:40:43.169Z,4.03
2023-04-30T11:43:24.974Z,4.00
2023-04-30T11:46:04.495Z,4.23
2023-04-30T11:48:36.274Z,4.23
2023-04-30T11:51:17.685Z,4.27
2023-04-30T11:53:49.878Z,3.97
2023-04-30T11:56:27.964Z,3.50
2023-04-30T11:58:59.372Z,3.73
2023-04-30T12:01:31.009Z,4.20
2023-04-30T12:04:04.224Z,3.53
2023-04-30T12:06:35.691Z,3.30
2023-04-30T12:09:09.358Z,3.40
2023-04-30T12:11:42.974Z,2.73
2023-04-30T12:14:15.330Z,2.00
2023-04-30T12:16:49.488Z,2.80
2023-04-30T12:19:21.301Z,2.30
2023-04-30T12:21:55.200Z,2.33
2023-04-30T12:24:30.439Z,2.73
2023-04-30T12:27:03.947Z,1.70
2023-04-30T12:29:34.881Z,1.57
2023-04-30T12:32:08.233Z,3.10
2023-04-30T12:34:41.533Z,2.13
2023-04-30T12:37:12.923Z,2.83
2023-04-30T12:39:44.784Z,2.63
2023-04-30T12:42:22.203Z,3.20
2023-04-30T12:44:53.061Z,2.93
2023-04-30T12:47:23.920Z,2.30
2023-04-30T12:49:55.027Z,2.67
2023-04-30T12:52:27.962Z,2.60
2023-04-30T12:54:58.961Z,3.37
2023-04-30T12:57:36.301Z,3.53
2023-04-30T13:00:08.418Z,3.60
2023-04-30T13:02:40.246Z,3.40
2023-04-30T13:05:12.343Z,3.20
2023-04-30T13:07:44.468Z,3.00
2023-04-30T13:10:16.626Z,2.67
2023-04-30T13:12:56.137Z,3.20
2023-04-30T13:15:27.046Z,3.07
2023-04-30T13:17:57.848Z,2.57
2023-04-30T13:20:29.414Z,2.40
2023-04-30T13:23:03.181Z,2.53
2023-04-30T13:25:34.987Z,2.97
2023-04-30T13:28:08.443Z,2.17
2023-04-30T13:30:39.442Z,2.80
2023-04-30T13:33:10.558Z,2.67
2023-04-30T13:35:42.024Z,2.63
2023-04-30T13:38:12.959Z,2.33
2023-04-30T13:40:43.814Z,2.20
2023-04-30T13:43:17.520Z,2.10
2023-04-30T13:45:48.418Z,1.77
2023-04-30T13:48:19.193Z,1.77
2023-04-30T13:50:50.008Z,1.90
2023-04-30T13:53:20.916Z,1.60
2023-04-30T13:55:51.824Z,1.80
2023-04-30T13:58:27.500Z,1.93
2023-04-30T14:00:58.485Z,2.10
2023-04-30T14:03:32.181Z,2.20
2023-04-30T14:06:03.112Z,2.43
2023-04-30T14:08:34.029Z,1.60
2023-04-30T14:11:04.933Z,1.50
2023-04-30T14:13:38.313Z,1.40
2023-04-30T14:16:09.919Z,1.30
2023-04-30T14:18:40.707Z,1.60
2023-04-30T14:21:11.719Z,1.50
2023-04-30T14:23:42.689Z,1.40
2023-04-30T14:26:13.457Z,1.40
2023-04-30T14:28:46.866Z,1.43
2023-04-30T14:31:17.713Z,1.10
2023-04-30T14:33:48.497Z,1.63
2023-04-30T14:36:19.400Z,1.70
2023-04-30T14:38:50.250Z,1.40
2023-04-30T14:41:21.186Z,1.47
2023-04-30T14:43:55.488Z,1.40
2023-04-30T14:46:26.929Z,1.80
2023-04-30T14:48:57.870Z,1.20
2023-04-30T14:51:28.818Z,1.27
2023-04-30T14:54:00.966Z,1.00
2023-04-30T14:56:32.334Z,1.20
2023-04-30T14:59:05.857Z,1.20
2023-04-30T15:01:36.829Z,1.00
2023-04-30T15:04:07.961Z,1.23
2023-04-30T15:06:38.836Z,1.10
2023-04-30T15:09:09.758Z,1.47
2023-04-30T15:11:40.569Z,1.60
2023-04-30T15:14:14.265Z,1.33
2023-04-30T15:16:45.283Z,1.03
2023-04-30T15:19:16.121Z,1.43
2023-04-30T15:21:49.226Z,1.17
2023-04-30T15:24:20.070Z,1.63
2023-04-30T15:26:51.276Z,20.50
2023-04-30T15:29:24.695Z,1.00
2023-04-30T15:31:56.075Z,1.07
2023-04-30T15:34:29.341Z,1.00
2023-04-30T15:37:00.805Z,1.10
2023-04-30T15:39:31.759Z,0.90
2023-04-30T15:42:02.577Z,1.20
2023-04-30T15:44:36.008Z,1.20
2023-04-30T15:47:07.009Z,1.30
2023-04-30T15:49:37.904Z,1.20
2023-04-30T15:52:08.693Z,1.30
2023-04-30T15:54:39.484Z,1.47
2023-04-30T15:57:10.612Z,2.60
2023-04-30T15:59:43.997Z,2.20
2023-04-30T16:02:14.841Z,1.47
2023-04-30T16:04:45.705Z,1.20
2023-04-30T16:07:16.822Z,1.27
2023-04-30T16:09:49.207Z,0.90
2023-04-30T16:12:20.214Z,1.00
2023-04-30T16:14:53.991Z,1.07
2023-04-30T16:17:24.926Z,1.37
2023-04-30T16:19:56.367Z,1.50
2023-04-30T16:22:33.967Z,1.00
2023-04-30T16:25:04.974Z,1.00
2023-04-30T16:27:37.448Z,1.20
2023-04-30T16:30:12.585Z,1.10
2023-04-30T16:32:44.442Z,1.30
2023-04-30T16:35:15.628Z,1.00
2023-04-30T16:37:46.466Z,1.10
2023-04-30T16:40:17.330Z,1.00
2023-04-30T16:42:48.132Z,1.20
2023-04-30T16:45:21.594Z,1.27
2023-04-30T16:47:52.698Z,1.37
2023-04-30T16:50:24.406Z,1.17
2023-04-30T16:52:57.195Z,1.77
2023-04-30T16:55:30.831Z,1.40
2023-04-30T16:58:01.956Z,1.43
2023-04-30T17:00:35.883Z,1.30
2023-04-30T17:03:07.439Z,1.10
2023-04-30T17:05:38.446Z,1.30
2023-04-30T17:08:09.299Z,1.60
2023-04-30T17:10:42.692Z,1.10
2023-04-30T17:13:13.917Z,1.20
2023-04-30T17:15:47.373Z,1.60
2023-04-30T17:18:18.495Z,1.37
2023-04-30T17:20:49.821Z,1.50
2023-04-30T17:23:20.948Z,1.50
2023-04-30T17:25:51.788Z,1.47
2023-04-30T17:28:23.037Z,1.27
2023-04-30T17:30:56.596Z,1.40
2023-04-30T17:33:28.486Z,1.30
2023-04-30T17:35:59.290Z,1.40
2023-04-30T17:38:33.581Z,1.40
2023-04-30T17:41:04.400Z,1.53
2023-04-30T17:43:35.160Z,1.97
2023-04-30T17:46:09.613Z,1.60
2023-04-30T17:48:40.497Z,1.73
2023-04-30T17:51:11.762Z,1.77
2023-04-30T17:53:42.549Z,1.60
2023-04-30T17:56:13.668Z,1.93
2023-04-30T17:58:45.939Z,1.60
2023-04-30T18:01:19.483Z,1.50
2023-04-30T18:03:50.522Z,1.60
2023-04-30T18:06:21.518Z,1.47
2023-04-30T18:08:53.905Z,1.60
2023-04-30T18:11:24.662Z,1.43
2023-04-30T18:13:55.468Z,1.67
2023-04-30T18:16:29.030Z,1.30
2023-04-30T18:18:59.836Z,1.50
2023-04-30T18:21:30.599Z,1.73
2023-04-30T18:24:01.396Z,1.63
2023-04-30T18:26:32.173Z,1.70
2023-04-30T18:29:02.980Z,1.50
2023-04-30T18:31:36.973Z,1.90
2023-04-30T18:34:07.904Z,1.83
2023-04-30T18:36:38.988Z,1.80
2023-04-30T18:39:12.339Z,1.90
2023-04-30T18:41:43.488Z,2.10
2023-04-30T18:44:14.308Z,2.40
2023-04-30T18:46:47.785Z,1.57
2023-04-30T18:49:18.568Z,1.90
2023-04-30T18:51:49.359Z,1.90
2023-04-30T18:54:20.373Z,2.03
2023-04-30T18:56:51.453Z,2.80
2023-04-30T18:59:22.327Z,2.20
2023-04-30T19:01:55.874Z,2.33
2023-04-30T19:04:26.746Z,2.00
2023-04-30T19:06:57.570Z,2.30
2023-04-30T19:09:28.409Z,2.70
2023-04-30T19:11:59.234Z,2.70
2023-04-30T19:14:35.660Z,2.70
2023-04-30T19:17:12.663Z,2.63
2023-04-30T19:19:45.211Z,2.60
2023-04-30T19:22:16.163Z,2.23
2023-04-30T19:24:47.253Z,3.30
2023-04-30T19:27:18.046Z,3.00
2023-04-30T19:29:49.275Z,3.70
2023-04-30T19:32:22.875Z,2.80
2023-04-30T19:34:56.357Z,2.70
2023-04-30T19:37:27.494Z,3.10
2023-04-30T19:39:58.367Z,3.80
2023-04-30T19:42:30.368Z,3.13
2023-04-30T19:45:01.255Z,3.43
2023-04-30T19:47:34.709Z,3.63
2023-04-30T19:50:05.730Z,2.83
2023-04-30T19:52:36.521Z,3.50
2023-04-30T19:55:08.365Z,3.27
2023-04-30T19:57:41.567Z,3.30
2023-04-30T20:00:14.108Z,2.80
2023-04-30T20:02:47.880Z,3.23
2023-04-30T20:05:18.907Z,3.43
2023-04-30T20:07:49.697Z,3.37
2023-04-30T20:10:20.735Z,2.60
2023-04-30T20:12:55.019Z,3.67
2023-04-30T20:15:28.170Z,3.47
2023-04-30T20:18:02.425Z,3.83
2023-04-30T20:20:33.385Z,3.53
2023-04-30T20:23:16.868Z,3.10
2023-04-30T20:25:50.297Z,3.60
2023-04-30T20:28:22.003Z,3.03
2023-04-30T20:30:52.944Z,3.33
2023-04-30T20:33:28.974Z,3.20
2023-04-30T20:36:00.236Z,3.33
2023-04-30T20:38:31.150Z,3.60
2023-04-30T20:41:04.281Z,3.50
2023-04-30T20:43:36.358Z,4.23
2023-04-30T20:46:09.559Z,3.40
2023-04-30T20:48:43.657Z,4.07
2023-04-30T20:51:17.726Z,3.47
2023-04-30T20:53:48.630Z,3.87
2023-04-30T20:56:19.477Z,3.83
2023-04-30T20:58:50.375Z,3.87
2023-04-30T21:01:24.460Z,4.17
2023-04-30T21:04:00.192Z,4.70
2023-04-30T21:06:32.530Z,4.73
2023-04-30T21:09:04.081Z,4.87
2023-04-30T21:11:34.965Z,4.60
2023-04-30T21:14:05.785Z,4.20
2023-04-30T21:16:36.719Z,4.50
2023-04-30T21:19:11.421Z,4.43
2023-04-30T21:21:42.326Z,4.70
2023-04-30T21:24:13.500Z,4.50
2023-04-30T21:26:44.418Z,4.60
2023-04-30T21:29:15.365Z,4.63
2023-04-30T21:31:46.233Z,3.87
2023-04-30T21:34:19.809Z,4.30
2023-04-30T21:36:51.244Z,3.97
2023-04-30T21:39:22.197Z,3.87
2023-04-30T21:41:53.168Z,3.70
2023-04-30T21:44:24.033Z,4.47
2023-04-30T21:46:54.943Z,4.90
2023-04-30T21:49:28.901Z,4.33
2023-04-30T21:51:59.830Z,5.97
2023-04-30T21:54:30.666Z,5.80
2023-04-30T21:57:02.832Z,6.43
2023-04-30T21:59:35.978Z,5.67
2023-04-30T22:02:20.025Z,5.50
2023-04-30T22:04:57.793Z,4.60
2023-04-30T22:07:28.594Z,4.63
2023-04-30T22:09:59.459Z,5.13
2023-04-30T22:12:33.783Z,5.53
2023-04-30T22:15:05.890Z,4.70
2023-04-30T22:17:37.223Z,4.70
2023-04-30T22:20:12.870Z,5.73
2023-04-30T22:22:44.325Z,4.83
2023-04-30T22:25:15.348Z,4.80
2023-04-30T22:27:47.334Z,5.13
2023-04-30T22:30:19.163Z,5.80
2023-04-30T22:32:49.974Z,5.53
2023-04-30T22:35:23.925Z,6.40
2023-04-30T22:37:54.738Z,5.40
2023-04-30T22:40:28.315Z,5.03
2023-04-30T22:42:59.125Z,4.73
2023-04-30T22:45:30.640Z,4.27
2023-04-30T22:48:02.097Z,4.83
2023-04-30T22:50:36.332Z,5.03
2023-04-30T22:53:08.316Z,5.00
2023-04-30T22:55:39.254Z,4.60
2023-04-30T22:58:10.083Z,4.30
2023-04-30T23:00:42.277Z,4.43
2023-04-30T23:03:13.205Z,5.00
2023-04-30T23:05:49.481Z,4.80
2023-04-30T23:08:20.283Z,4.80
2023-04-30T23:10:53.174Z,5.77
2023-04-30T23:13:24.036Z,4.80
2023-04-30T23:15:54.841Z,5.23
2023-04-30T23:18:25.701Z,4.57
2023-04-30T23:21:00.990Z,5.03
2023-04-30T23:23:32.297Z,5.10
2023-04-30T23:26:04.101Z,5.97
2023-04-30T23:28:36.964Z,5.80
2023-04-30T23:31:07.779Z,4.90
2023-04-30T23:33:38.589Z,5.43
2023-04-30T23:36:12.370Z,6.33
2023-04-30T23:38:43.378Z,5.70
2023-04-30T23:41:14.338Z,5.63
2023-04-30T23:43:45.221Z,5.23
2023-04-30T23:46:16.112Z,5.23
2023-04-30T23:48:47.204Z,4.90
2023-04-30T23:51:21.637Z,5.50
2023-04-30T23:53:53.170Z,5.40
2023-04-30T23:56:24.147Z,5.50
2023-04-30T23:58:55.063Z,5.60
